createdAt,value
2017-07-03T00:00:06.484Z,81.10
2017-07-03T00:02:47.288Z,81.20
2017-07-03T00:05:22.370Z,81.20
2017-07-03T00:07:54.405Z,81.40
2017-07-03T00:10:32.352Z,81.50
2017-07-03T00:13:07.935Z,81.60
2017-07-03T00:15:59.143Z,81.50
2017-07-03T00:18:42.876Z,81.50
2017-07-03T00:21:17.525Z,81.10
2017-07-03T00:23:52.735Z,81.60
2017-07-03T00:26:27.072Z,81.50
2017-07-03T00:29:01.124Z,81.60
2017-07-03T00:34:30.227Z,81.70
2017-07-03T00:40:16.607Z,81.80
2017-07-03T00:42:51.327Z,81.70
2017-07-03T00:45:28.197Z,81.50
2017-07-03T00:48:05.806Z,81.70
2017-07-03T00:53:34.447Z,81.80
2017-07-03T00:56:23.322Z,81.80
2017-07-03T01:19:13.735Z,81.90
2017-07-03T01:21:52.015Z,82.10
2017-07-03T01:24:25.804Z,82.50
2017-07-03T01:26:59.681Z,82.80
2017-07-03T01:29:33.797Z,83.00
2017-07-03T01:32:18.030Z,83.10
2017-07-03T01:34:54.846Z,83.00
2017-07-03T01:37:33.523Z,82.80
2017-07-03T01:40:07.312Z,82.70
2017-07-03T01:54:12.766Z,82.60
2017-07-03T01:59:36.772Z,82.80
2017-07-03T02:02:27.899Z,82.50
2017-07-03T02:39:49.230Z,82.10
2017-07-03T03:31:21.166Z,82.20
2017-07-03T03:34:00.863Z,82.20
2017-07-03T03:36:39.455Z,82.20
2017-07-03T03:39:17.967Z,82.10
2017-07-03T03:44:59.228Z,82.30
2017-07-03T03:47:39.099Z,83.30
2017-07-03T03:50:15.251Z,83.40
2017-07-03T03:52:50.718Z,83.50
2017-07-03T03:55:25.180Z,83.60
2017-07-03T03:58:06.584Z,83.70
2017-07-03T04:09:26.011Z,84.10
2017-07-03T04:12:02.472Z,84.10
2017-07-03T04:14:36.585Z,84.20
2017-07-03T04:17:12.878Z,84.20
2017-07-03T04:19:54.434Z,84.10
2017-07-03T04:22:27.124Z,84.40
2017-07-03T04:25:02.017Z,84.40
2017-07-03T04:27:35.863Z,84.40
2017-07-03T04:30:10.415Z,84.60
2017-07-03T04:32:44.796Z,84.60
2017-07-03T04:35:19.507Z,84.70
2017-07-03T04:37:53.466Z,84.70
2017-07-03T04:40:27.510Z,84.80
2017-07-03T04:43:03.221Z,85.00
2017-07-03T04:45:38.206Z,85.00
2017-07-03T04:48:10.851Z,85.00
2017-07-03T04:50:44.882Z,84.90
2017-07-03T04:53:25.469Z,84.00
2017-07-03T04:55:57.476Z,84.00
2017-07-03T04:58:31.646Z,84.10
2017-07-03T05:01:06.087Z,84.10
2017-07-03T05:03:46.171Z,84.20
2017-07-03T05:17:40.993Z,84.60
2017-07-03T05:20:21.982Z,84.60
2017-07-03T05:28:43.333Z,84.80
2017-07-03T05:34:20.442Z,84.80
2017-07-03T05:36:57.359Z,84.80
2017-07-03T05:39:37.307Z,85.30
2017-07-03T05:42:15.502Z,84.90
2017-07-03T05:44:53.348Z,84.90
2017-07-03T05:47:29.594Z,85.00
2017-07-03T05:50:04.217Z,85.00
2017-07-03T05:52:40.060Z,85.20
2017-07-03T05:55:18.062Z,85.20
2017-07-03T05:57:52.284Z,85.30
2017-07-03T06:00:37.540Z,85.40
2017-07-03T06:08:57.522Z,85.60
2017-07-03T06:11:40.421Z,85.50
2017-07-03T06:14:19.560Z,85.40
2017-07-03T06:17:01.427Z,85.30
2017-07-03T06:19:35.822Z,85.30
2017-07-03T06:22:20.486Z,85.40
2017-07-03T06:24:56.259Z,85.40
2017-07-03T06:27:29.930Z,85.40
2017-07-03T06:30:01.200Z,85.40
2017-07-03T06:32:36.941Z,85.50
2017-07-03T06:35:11.634Z,85.50
2017-07-03T06:37:42.658Z,85.30
2017-07-03T06:40:18.231Z,85.40
2017-07-03T07:06:07.184Z,84.80
2017-07-03T07:08:59.491Z,84.60
2017-07-03T07:14:29.746Z,84.40
2017-07-03T07:17:04.236Z,84.10
2017-07-03T07:37:10.682Z,82.50
2017-07-03T07:39:59.210Z,82.10
2017-07-03T10:29:41.598Z,57.60
2017-07-03T10:32:13.285Z,57.10
2017-07-03T10:34:48.757Z,56.80
2017-07-03T10:37:22.484Z,56.40
2017-07-03T10:39:57.527Z,56.20
2017-07-03T10:42:32.416Z,55.90
2017-07-03T10:45:07.160Z,56.20
2017-07-03T10:47:41.206Z,55.30
2017-07-03T10:50:16.889Z,55.20
2017-07-03T10:52:47.819Z,54.80
2017-07-03T10:55:24.982Z,54.30
2017-07-03T10:57:59.728Z,53.90
2017-07-03T11:00:31.611Z,53.90
2017-07-03T11:03:08.099Z,53.50
2017-07-03T11:05:46.297Z,53.20
2017-07-03T11:08:20.347Z,52.60
2017-07-03T11:10:52.184Z,52.30
2017-07-03T11:13:27.183Z,52.80
2017-07-03T11:16:05.360Z,52.60
2017-07-03T11:18:39.024Z,52.50
2017-07-03T11:21:10.305Z,52.10
2017-07-03T11:32:29.657Z,51.40
2017-07-03T11:35:04.147Z,50.90
2017-07-03T11:37:38.279Z,50.70
2017-07-03T11:40:07.782Z,50.90
2017-07-03T11:42:39.046Z,50.70
2017-07-03T11:45:12.447Z,49.90
2017-07-03T11:47:41.549Z,50.10
2017-07-03T11:50:12.281Z,50.10
2017-07-03T11:52:46.801Z,50.50
2017-07-03T11:55:20.780Z,50.10
2017-07-03T11:57:55.145Z,49.20
2017-07-03T12:00:24.158Z,49.20
2017-07-03T12:02:58.213Z,49.00
2017-07-03T12:05:31.780Z,49.00
2017-07-03T12:08:06.519Z,49.10
2017-07-03T12:10:40.583Z,48.80
2017-07-03T12:13:14.484Z,48.20
2017-07-03T12:15:48.178Z,47.70
2017-07-03T12:18:20.327Z,47.40
2017-07-03T12:20:51.550Z,47.30
2017-07-03T12:23:24.938Z,47.30
2017-07-03T12:26:04.202Z,47.60
2017-07-03T12:28:38.552Z,47.70
2017-07-03T12:31:12.670Z,47.90
2017-07-03T12:33:47.284Z,47.50
2017-07-03T12:36:26.038Z,47.10
2017-07-03T12:38:57.473Z,46.80
2017-07-03T12:41:31.366Z,46.90
2017-07-03T12:44:00.607Z,47.10
2017-07-03T12:46:32.026Z,46.30
2017-07-03T12:49:05.537Z,46.20
2017-07-03T12:51:39.757Z,46.50
2017-07-03T12:54:12.542Z,46.20
2017-07-03T12:56:46.498Z,45.50
2017-07-03T12:59:17.913Z,45.10
2017-07-03T13:01:51.326Z,45.10
2017-07-03T13:04:22.712Z,45.60
2017-07-03T13:06:53.599Z,45.90
2017-07-03T13:09:29.562Z,45.90
2017-07-03T13:12:00.474Z,45.90
2017-07-03T13:14:31.365Z,45.20
2017-07-03T13:17:02.301Z,45.20
2017-07-03T13:19:33.651Z,46.30
2017-07-03T13:22:08.415Z,46.40
2017-07-03T13:24:40.257Z,46.80
2017-07-03T13:27:11.426Z,46.50
2017-07-03T13:29:45.135Z,45.90
2017-07-03T13:32:13.592Z,45.00
2017-07-03T13:37:39.611Z,44.50
2017-07-03T13:40:13.906Z,43.90
2017-07-03T13:42:45.506Z,44.30
2017-07-03T13:45:16.526Z,45.00
2017-07-03T13:50:46.149Z,44.30
2017-07-03T13:53:21.586Z,44.00
2017-07-03T13:55:53.109Z,44.70
2017-07-03T13:58:24.072Z,44.60
2017-07-03T14:01:04.503Z,44.40
2017-07-03T14:03:35.654Z,44.60
2017-07-03T14:06:09.309Z,44.90
2017-07-03T14:08:40.383Z,45.00
2017-07-03T14:11:14.212Z,45.30
2017-07-03T14:13:48.206Z,45.90
2017-07-03T14:16:24.486Z,46.20
2017-07-03T14:18:55.323Z,46.00
2017-07-03T14:21:29.099Z,45.60
2017-07-03T14:24:00.174Z,45.10
2017-07-03T14:26:31.421Z,45.20
2017-07-03T14:29:02.043Z,45.10
2017-07-03T14:31:40.164Z,44.90
2017-07-03T14:34:15.156Z,44.40
2017-07-03T14:36:46.603Z,44.00
2017-07-03T14:39:20.150Z,44.00
2017-07-03T14:41:54.262Z,44.10
2017-07-03T14:44:25.330Z,44.30
2017-07-03T14:47:00.418Z,44.30
2017-07-03T14:49:29.547Z,44.30
2017-07-03T14:52:00.881Z,44.60
2017-07-03T14:54:31.782Z,44.90
2017-07-03T14:57:05.679Z,44.60
2017-07-03T14:59:39.396Z,44.70
2017-07-03T15:02:07.955Z,44.50
2017-07-03T15:04:42.818Z,44.40
2017-07-03T15:07:13.793Z,44.20
2017-07-03T15:09:47.743Z,44.50
2017-07-03T15:12:19.281Z,44.40
2017-07-03T15:14:50.891Z,44.40
2017-07-03T15:17:29.955Z,44.30
2017-07-03T15:20:02.247Z,44.50
2017-07-03T15:22:33.563Z,44.60
2017-07-03T15:25:07.635Z,44.60
2017-07-03T15:27:41.465Z,45.10
2017-07-03T15:30:15.845Z,45.40
2017-07-03T15:32:49.415Z,45.10
2017-07-03T15:35:21.708Z,45.00
2017-07-03T15:37:52.756Z,45.00
2017-07-03T15:40:23.857Z,45.00
2017-07-03T15:43:01.639Z,45.10
2017-07-03T15:48:24.748Z,44.90
2017-07-03T15:51:00.410Z,44.70
2017-07-03T15:53:32.241Z,45.10
2017-07-03T15:56:06.120Z,45.00
2017-07-03T15:58:47.376Z,45.10
2017-07-03T16:01:18.393Z,45.50
2017-07-03T16:03:52.504Z,45.60
2017-07-03T16:06:36.614Z,45.00
2017-07-03T16:20:54.078Z,44.10
